sensor_id;sensor_type;location;lat;lon;timestamp;P1;durP1;ratioP1;P2;durP2;ratioP2
55655;SDS011;41530;52.382;5.270;2024-01-10T00:02:03;5.30;;;2.05;;
55655;SDS011;41530;52.382;5.270;2024-01-10T00:04:30;2.78;;;1.60;;
55655;SDS011;41530;52.382;5.270;2024-01-10T00:06:57;3.28;;;2.00;;
55655;SDS011;41530;52.382;5.270;2024-01-10T00:09:23;2.90;;;1.90;;
55655;SDS011;41530;52.382;5.270;2024-01-10T00:11:50;3.35;;;2.00;;
55655;SDS011;41530;52.382;5.270;2024-01-10T00:14:17;2.58;;;1.58;;
55655;SDS011;41530;52.382;5.270;2024-01-10T00:16:43;3.25;;;1.65;;
55655;SDS011;41530;52.382;5.270;2024-01-10T00:19:10;4.10;;;1.83;;
55655;SDS011;41530;52.382;5.270;2024-01-10T00:21:37;4.30;;;1.50;;
55655;SDS011;41530;52.382;5.270;2024-01-10T00:24:04;2.47;;;1.63;;
55655;SDS011;41530;52.382;5.270;2024-01-10T00:26:31;2.85;;;1.85;;
55655;SDS011;41530;52.382;5.270;2024-01-10T00:28:57;4.72;;;1.85;;
55655;SDS011;41530;52.382;5.270;2024-01-10T00:31:30;4.30;;;2.00;;
55655;SDS011;41530;52.382;5.270;2024-01-10T00:33:56;2.22;;;1.55;;
55655;SDS011;41530;52.382;5.270;2024-01-10T00:36:23;4.55;;;1.80;;
55655;SDS011;41530;52.382;5.270;2024-01-10T00:38:50;5.18;;;1.75;;
55655;SDS011;41530;52.382;5.270;2024-01-10T00:41:17;2.65;;;1.83;;
55655;SDS011;41530;52.382;5.270;2024-01-10T00:43:43;4.28;;;1.90;;
55655;SDS011;41530;52.382;5.270;2024-01-10T00:46:13;4.10;;;2.03;;
55655;SDS011;41530;52.382;5.270;2024-01-10T00:48:39;2.85;;;1.55;;
55655;SDS011;41530;52.382;5.270;2024-01-10T00:51:06;3.10;;;1.95;;
55655;SDS011;41530;52.382;5.270;2024-01-10T00:53:35;4.05;;;1.60;;
55655;SDS011;41530;52.382;5.270;2024-01-10T00:56:02;2.25;;;1.52;;
55655;SDS011;41530;52.382;5.270;2024-01-10T00:58:29;2.30;;;1.73;;
55655;SDS011;41530;52.382;5.270;2024-01-10T01:00:55;2.13;;;1.73;;
55655;SDS011;41530;52.382;5.270;2024-01-10T01:03:22;3.05;;;1.50;;
55655;SDS011;41530;52.382;5.270;2024-01-10T01:05:49;1.90;;;1.52;;
55655;SDS011;41530;52.382;5.270;2024-01-10T01:08:16;3.90;;;1.80;;
55655;SDS011;41530;52.382;5.270;2024-01-10T01:10:43;3.58;;;1.77;;
55655;SDS011;41530;52.382;5.270;2024-01-10T01:13:09;2.38;;;1.52;;
55655;SDS011;41530;52.382;5.270;2024-01-10T01:15:36;2.35;;;1.52;;
55655;SDS011;41530;52.382;5.270;2024-01-10T01:18:03;2.45;;;1.70;;
55655;SDS011;41530;52.382;5.270;2024-01-10T01:20:29;3.65;;;1.80;;
55655;SDS011;41530;52.382;5.270;2024-01-10T01:22:59;2.35;;;1.65;;
55655;SDS011;41530;52.382;5.270;2024-01-10T01:25:26;2.40;;;1.55;;
55655;SDS011;41530;52.382;5.270;2024-01-10T01:27:52;1.92;;;1.33;;
55655;SDS011;41530;52.382;5.270;2024-01-10T01:30:19;2.33;;;1.90;;
55655;SDS011;41530;52.382;5.270;2024-01-10T01:32:48;3.08;;;1.63;;
55655;SDS011;41530;52.382;5.270;2024-01-10T01:35:15;2.28;;;1.58;;
55655;SDS011;41530;52.382;5.270;2024-01-10T01:37:48;1.98;;;1.50;;
55655;SDS011;41530;52.382;5.270;2024-01-10T01:40:15;2.45;;;1.85;;
55655;SDS011;41530;52.382;5.270;2024-01-10T01:42:43;2.28;;;1.63;;
55655;SDS011;41530;52.382;5.270;2024-01-10T01:45:11;2.15;;;1.63;;
55655;SDS011;41530;52.382;5.270;2024-01-10T01:47:38;1.90;;;1.50;;
55655;SDS011;41530;52.382;5.270;2024-01-10T01:50:06;4.53;;;1.70;;
55655;SDS011;41530;52.382;5.270;2024-01-10T01:52:35;3.03;;;1.75;;
55655;SDS011;41530;52.382;5.270;2024-01-10T01:55:02;1.92;;;1.40;;
55655;SDS011;41530;52.382;5.270;2024-01-10T01:57:30;1.83;;;1.65;;
55655;SDS011;41530;52.382;5.270;2024-01-10T01:59:57;2.65;;;1.92;;
55655;SDS011;41530;52.382;5.270;2024-01-10T02:02:24;2.20;;;1.42;;
55655;SDS011;41530;52.382;5.270;2024-01-10T02:04:52;4.13;;;1.80;;
55655;SDS011;41530;52.382;5.270;2024-01-10T02:07:19;2.28;;;2.08;;
55655;SDS011;41530;52.382;5.270;2024-01-10T02:09:46;1.65;;;1.45;;
55655;SDS011;41530;52.382;5.270;2024-01-10T02:12:13;1.98;;;1.60;;
55655;SDS011;41530;52.382;5.270;2024-01-10T02:14:40;1.73;;;1.40;;
55655;SDS011;41530;52.382;5.270;2024-01-10T02:17:07;1.83;;;1.50;;
55655;SDS011;41530;52.382;5.270;2024-01-10T02:19:33;1.67;;;1.17;;
55655;SDS011;41530;52.382;5.270;2024-01-10T02:22:01;2.20;;;1.50;;
55655;SDS011;41530;52.382;5.270;2024-01-10T02:24:29;3.10;;;1.88;;
55655;SDS011;41530;52.382;5.270;2024-01-10T02:26:56;2.28;;;1.50;;
55655;SDS011;41530;52.382;5.270;2024-01-10T02:29:22;3.20;;;1.80;;
55655;SDS011;41530;52.382;5.270;2024-01-10T02:31:50;2.45;;;1.60;;
55655;SDS011;41530;52.382;5.270;2024-01-10T02:34:17;2.38;;;1.85;;
55655;SDS011;41530;52.382;5.270;2024-01-10T02:36:44;2.40;;;1.63;;
55655;SDS011;41530;52.382;5.270;2024-01-10T02:39:10;2.08;;;1.50;;
55655;SDS011;41530;52.382;5.270;2024-01-10T02:41:37;2.70;;;1.45;;
55655;SDS011;41530;52.382;5.270;2024-01-10T02:44:04;2.25;;;1.55;;
55655;SDS011;41530;52.382;5.270;2024-01-10T02:46:32;2.15;;;1.55;;
55655;SDS011;41530;52.382;5.270;2024-01-10T02:48:58;1.65;;;1.42;;
55655;SDS011;41530;52.382;5.270;2024-01-10T02:51:26;2.20;;;1.55;;
55655;SDS011;41530;52.382;5.270;2024-01-10T02:53:56;3.33;;;1.70;;
55655;SDS011;41530;52.382;5.270;2024-01-10T02:56:23;2.42;;;1.50;;
55655;SDS011;41530;52.382;5.270;2024-01-10T02:58:49;2.38;;;1.70;;
55655;SDS011;41530;52.382;5.270;2024-01-10T03:01:16;1.65;;;1.40;;
55655;SDS011;41530;52.382;5.270;2024-01-10T03:03:43;1.80;;;1.45;;
55655;SDS011;41530;52.382;5.270;2024-01-10T03:06:10;2.42;;;1.70;;
55655;SDS011;41530;52.382;5.270;2024-01-10T03:08:36;2.45;;;1.65;;
55655;SDS011;41530;52.382;5.270;2024-01-10T03:11:03;6.30;;;1.55;;
55655;SDS011;41530;52.382;5.270;2024-01-10T03:13:30;2.95;;;1.75;;
55655;SDS011;41530;52.382;5.270;2024-01-10T03:15:57;2.03;;;1.50;;
55655;SDS011;41530;52.382;5.270;2024-01-10T03:18:23;1.90;;;1.48;;
55655;SDS011;41530;52.382;5.270;2024-01-10T03:20:50;1.65;;;1.55;;
55655;SDS011;41530;52.382;5.270;2024-01-10T03:23:17;1.80;;;1.38;;
55655;SDS011;41530;52.382;5.270;2024-01-10T03:25:44;2.17;;;1.45;;
55655;SDS011;41530;52.382;5.270;2024-01-10T03:28:10;2.42;;;1.60;;
55655;SDS011;41530;52.382;5.270;2024-01-10T03:30:42;1.88;;;1.50;;
55655;SDS011;41530;52.382;5.270;2024-01-10T03:33:09;3.47;;;1.75;;
55655;SDS011;41530;52.382;5.270;2024-01-10T03:35:36;2.60;;;1.48;;
55655;SDS011;41530;52.382;5.270;2024-01-10T03:38:02;5.22;;;1.77;;
55655;SDS011;41530;52.382;5.270;2024-01-10T03:40:30;2.50;;;1.42;;
55655;SDS011;41530;52.382;5.270;2024-01-10T03:42:56;2.65;;;1.65;;
55655;SDS011;41530;52.382;5.270;2024-01-10T03:45:24;4.65;;;2.05;;
55655;SDS011;41530;52.382;5.270;2024-01-10T03:47:50;2.38;;;1.70;;
55655;SDS011;41530;52.382;5.270;2024-01-10T03:50:19;1.80;;;1.58;;
55655;SDS011;41530;52.382;5.270;2024-01-10T03:52:47;1.25;;;1.15;;
55655;SDS011;41530;52.382;5.270;2024-01-10T03:55:13;2.90;;;1.70;;
55655;SDS011;41530;52.382;5.270;2024-01-10T03:57:41;1.83;;;1.45;;
55655;SDS011;41530;52.382;5.270;2024-01-10T04:00:08;3.50;;;2.08;;
55655;SDS011;41530;52.382;5.270;2024-01-10T04:02:36;1.98;;;1.60;;
55655;SDS011;41530;52.382;5.270;2024-01-10T04:05:08;2.03;;;1.83;;
55655;SDS011;41530;52.382;5.270;2024-01-10T04:07:42;1.65;;;1.50;;
55655;SDS011;41530;52.382;5.270;2024-01-10T04:10:10;2.58;;;1.70;;
55655;SDS011;41530;52.382;5.270;2024-01-10T04:12:40;1.70;;;1.38;;
55655;SDS011;41530;52.382;5.270;2024-01-10T04:15:07;1.90;;;1.52;;
55655;SDS011;41530;52.382;5.270;2024-01-10T04:17:34;2.08;;;1.35;;
55655;SDS011;41530;52.382;5.270;2024-01-10T04:20:01;1.67;;;1.40;;
55655;SDS011;41530;52.382;5.270;2024-01-10T04:22:28;2.70;;;1.88;;
55655;SDS011;41530;52.382;5.270;2024-01-10T04:24:58;2.78;;;1.40;;
55655;SDS011;41530;52.382;5.270;2024-01-10T04:27:26;3.30;;;1.60;;
55655;SDS011;41530;52.382;5.270;2024-01-10T04:29:53;1.77;;;1.45;;
55655;SDS011;41530;52.382;5.270;2024-01-10T04:32:20;5.85;;;1.63;;
55655;SDS011;41530;52.382;5.270;2024-01-10T04:34:47;3.95;;;1.60;;
55655;SDS011;41530;52.382;5.270;2024-01-10T04:37:13;2.42;;;1.40;;
55655;SDS011;41530;52.382;5.270;2024-01-10T04:39:40;2.15;;;1.40;;
55655;SDS011;41530;52.382;5.270;2024-01-10T04:42:12;2.25;;;1.45;;
55655;SDS011;41530;52.382;5.270;2024-01-10T04:44:39;1.73;;;1.25;;
55655;SDS011;41530;52.382;5.270;2024-01-10T04:47:06;2.78;;;1.60;;
55655;SDS011;41530;52.382;5.270;2024-01-10T04:49:34;2.22;;;1.50;;
55655;SDS011;41530;52.382;5.270;2024-01-10T04:52:01;1.73;;;1.38;;
55655;SDS011;41530;52.382;5.270;2024-01-10T04:54:28;1.95;;;1.75;;
55655;SDS011;41530;52.382;5.270;2024-01-10T04:56:55;1.63;;;1.30;;
55655;SDS011;41530;52.382;5.270;2024-01-10T04:59:21;1.83;;;1.50;;
55655;SDS011;41530;52.382;5.270;2024-01-10T05:01:48;2.00;;;1.40;;
55655;SDS011;41530;52.382;5.270;2024-01-10T05:04:15;1.73;;;1.48;;
55655;SDS011;41530;52.382;5.270;2024-01-10T05:06:41;2.50;;;1.85;;
55655;SDS011;41530;52.382;5.270;2024-01-10T05:09:08;2.58;;;1.58;;
55655;SDS011;41530;52.382;5.270;2024-01-10T05:11:36;1.80;;;1.40;;
55655;SDS011;41530;52.382;5.270;2024-01-10T05:14:03;2.10;;;1.55;;
55655;SDS011;41530;52.382;5.270;2024-01-10T05:16:30;1.73;;;1.20;;
55655;SDS011;41530;52.382;5.270;2024-01-10T05:19:00;2.92;;;1.67;;
55655;SDS011;41530;52.382;5.270;2024-01-10T05:21:30;2.72;;;1.67;;
55655;SDS011;41530;52.382;5.270;2024-01-10T05:23:57;2.53;;;1.80;;
55655;SDS011;41530;52.382;5.270;2024-01-10T05:26:24;3.55;;;1.77;;
55655;SDS011;41530;52.382;5.270;2024-01-10T05:28:51;1.83;;;1.40;;
55655;SDS011;41530;52.382;5.270;2024-01-10T05:31:17;1.60;;;1.35;;
55655;SDS011;41530;52.382;5.270;2024-01-10T05:33:44;1.85;;;1.50;;
55655;SDS011;41530;52.382;5.270;2024-01-10T05:36:11;2.78;;;1.80;;
55655;SDS011;41530;52.382;5.270;2024-01-10T05:38:38;2.22;;;1.60;;
55655;SDS011;41530;52.382;5.270;2024-01-10T05:41:04;3.08;;;1.65;;
55655;SDS011;41530;52.382;5.270;2024-01-10T05:43:31;2.15;;;1.70;;
55655;SDS011;41530;52.382;5.270;2024-01-10T05:45:59;2.30;;;1.63;;
55655;SDS011;41530;52.382;5.270;2024-01-10T05:48:26;2.20;;;1.60;;
55655;SDS011;41530;52.382;5.270;2024-01-10T05:50:52;1.67;;;1.48;;
55655;SDS011;41530;52.382;5.270;2024-01-10T05:53:19;2.80;;;1.70;;
55655;SDS011;41530;52.382;5.270;2024-01-10T05:55:46;2.30;;;1.60;;
55655;SDS011;41530;52.382;5.270;2024-01-10T05:58:12;2.47;;;1.40;;
55655;SDS011;41530;52.382;5.270;2024-01-10T06:00:39;3.20;;;1.38;;
55655;SDS011;41530;52.382;5.270;2024-01-10T06:03:06;2.75;;;1.52;;
55655;SDS011;41530;52.382;5.270;2024-01-10T06:05:34;2.53;;;1.52;;
55655;SDS011;41530;52.382;5.270;2024-01-10T06:08:00;1.90;;;1.30;;
55655;SDS011;41530;52.382;5.270;2024-01-10T06:10:30;1.50;;;1.40;;
55655;SDS011;41530;52.382;5.270;2024-01-10T06:13:01;1.85;;;1.40;;
55655;SDS011;41530;52.382;5.270;2024-01-10T06:15:32;1.75;;;1.35;;
55655;SDS011;41530;52.382;5.270;2024-01-10T06:18:00;2.45;;;1.48;;
55655;SDS011;41530;52.382;5.270;2024-01-10T06:20:27;1.70;;;1.30;;
55655;SDS011;41530;52.382;5.270;2024-01-10T06:22:54;1.67;;;1.50;;
55655;SDS011;41530;52.382;5.270;2024-01-10T06:25:21;1.80;;;1.40;;
55655;SDS011;41530;52.382;5.270;2024-01-10T06:27:47;2.83;;;1.50;;
55655;SDS011;41530;52.382;5.270;2024-01-10T06:30:14;2.28;;;1.60;;
55655;SDS011;41530;52.382;5.270;2024-01-10T06:32:41;1.85;;;1.52;;
55655;SDS011;41530;52.382;5.270;2024-01-10T06:35:07;2.45;;;1.60;;
55655;SDS011;41530;52.382;5.270;2024-01-10T06:37:37;2.05;;;1.50;;
55655;SDS011;41530;52.382;5.270;2024-01-10T06:40:05;2.20;;;1.63;;
55655;SDS011;41530;52.382;5.270;2024-01-10T06:42:32;2.20;;;1.70;;
55655;SDS011;41530;52.382;5.270;2024-01-10T06:44:59;2.45;;;1.70;;
55655;SDS011;41530;52.382;5.270;2024-01-10T06:47:26;3.60;;;1.80;;
55655;SDS011;41530;52.382;5.270;2024-01-10T06:49:53;2.47;;;1.70;;
55655;SDS011;41530;52.382;5.270;2024-01-10T06:52:21;1.85;;;1.50;;
55655;SDS011;41530;52.382;5.270;2024-01-10T06:54:49;2.17;;;1.77;;
55655;SDS011;41530;52.382;5.270;2024-01-10T06:57:15;3.78;;;2.03;;
55655;SDS011;41530;52.382;5.270;2024-01-10T06:59:45;4.25;;;1.95;;
55655;SDS011;41530;52.382;5.270;2024-01-10T07:02:11;2.03;;;1.73;;
55655;SDS011;41530;52.382;5.270;2024-01-10T07:04:39;4.80;;;1.77;;
55655;SDS011;41530;52.382;5.270;2024-01-10T07:07:05;3.67;;;1.83;;
55655;SDS011;41530;52.382;5.270;2024-01-10T07:09:34;1.58;;;1.45;;
55655;SDS011;41530;52.382;5.270;2024-01-10T07:12:01;2.45;;;1.70;;
55655;SDS011;41530;52.382;5.270;2024-01-10T07:14:30;3.08;;;1.85;;
55655;SDS011;41530;52.382;5.270;2024-01-10T07:16:57;3.88;;;1.63;;
55655;SDS011;41530;52.382;5.270;2024-01-10T07:19:23;1.95;;;1.50;;
55655;SDS011;41530;52.382;5.270;2024-01-10T07:21:50;7.10;;;1.40;;
55655;SDS011;41530;52.382;5.270;2024-01-10T07:24:17;5.60;;;1.60;;
55655;SDS011;41530;52.382;5.270;2024-01-10T07:26:44;4.38;;;1.67;;
55655;SDS011;41530;52.382;5.270;2024-01-10T07:29:10;3.40;;;1.52;;
55655;SDS011;41530;52.382;5.270;2024-01-10T07:31:37;2.50;;;1.42;;
55655;SDS011;41530;52.382;5.270;2024-01-10T07:34:04;1.50;;;1.40;;
55655;SDS011;41530;52.382;5.270;2024-01-10T07:36:40;3.58;;;1.70;;
55655;SDS011;41530;52.382;5.270;2024-01-10T07:39:09;4.80;;;1.50;;
55655;SDS011;41530;52.382;5.270;2024-01-10T07:41:36;2.10;;;1.55;;
55655;SDS011;41530;52.382;5.270;2024-01-10T07:44:03;3.03;;;1.55;;
55655;SDS011;41530;52.382;5.270;2024-01-10T07:46:29;2.88;;;1.27;;
55655;SDS011;41530;52.382;5.270;2024-01-10T07:48:56;1.48;;;1.20;;
55655;SDS011;41530;52.382;5.270;2024-01-10T07:51:23;2.20;;;1.40;;
55655;SDS011;41530;52.382;5.270;2024-01-10T07:53:49;2.88;;;1.52;;
55655;SDS011;41530;52.382;5.270;2024-01-10T07:56:16;4.60;;;1.60;;
55655;SDS011;41530;52.382;5.270;2024-01-10T07:58:43;2.10;;;1.52;;
55655;SDS011;41530;52.382;5.270;2024-01-10T08:01:09;2.60;;;1.40;;
55655;SDS011;41530;52.382;5.270;2024-01-10T08:03:37;2.85;;;1.73;;
55655;SDS011;41530;52.382;5.270;2024-01-10T08:06:04;8.85;;;1.58;;
55655;SDS011;41530;52.382;5.270;2024-01-10T08:08:42;1.58;;;1.30;;
55655;SDS011;41530;52.382;5.270;2024-01-10T08:11:09;2.78;;;1.33;;
55655;SDS011;41530;52.382;5.270;2024-01-10T08:13:36;1.45;;;1.30;;
55655;SDS011;41530;52.382;5.270;2024-01-10T08:16:08;1.83;;;1.30;;
55655;SDS011;41530;52.382;5.270;2024-01-10T08:18:35;1.60;;;1.30;;
55655;SDS011;41530;52.382;5.270;2024-01-10T08:21:02;2.80;;;1.45;;
55655;SDS011;41530;52.382;5.270;2024-01-10T08:23:30;1.77;;;1.38;;
55655;SDS011;41530;52.382;5.270;2024-01-10T08:25:57;2.00;;;1.27;;
55655;SDS011;41530;52.382;5.270;2024-01-10T08:28:24;4.55;;;1.52;;
55655;SDS011;41530;52.382;5.270;2024-01-10T08:30:52;1.35;;;1.20;;
55655;SDS011;41530;52.382;5.270;2024-01-10T08:33:25;2.28;;;1.50;;
55655;SDS011;41530;52.382;5.270;2024-01-10T08:35:52;2.10;;;1.50;;
55655;SDS011;41530;52.382;5.270;2024-01-10T08:38:22;2.28;;;1.40;;
55655;SDS011;41530;52.382;5.270;2024-01-10T08:40:49;2.33;;;1.40;;
55655;SDS011;41530;52.382;5.270;2024-01-10T08:43:15;2.55;;;1.25;;
55655;SDS011;41530;52.382;5.270;2024-01-10T08:45:44;2.53;;;1.58;;
55655;SDS011;41530;52.382;5.270;2024-01-10T08:48:10;1.83;;;1.33;;
55655;SDS011;41530;52.382;5.270;2024-01-10T08:50:39;2.65;;;1.13;;
55655;SDS011;41530;52.382;5.270;2024-01-10T08:53:06;5.53;;;1.30;;
55655;SDS011;41530;52.382;5.270;2024-01-10T08:55:33;2.10;;;1.48;;
55655;SDS011;41530;52.382;5.270;2024-01-10T08:58:00;1.70;;;1.40;;
55655;SDS011;41530;52.382;5.270;2024-01-10T09:00:30;5.65;;;2.15;;
55655;SDS011;41530;52.382;5.270;2024-01-10T09:02:58;2.35;;;1.63;;
55655;SDS011;41530;52.382;5.270;2024-01-10T09:05:24;2.38;;;1.42;;
55655;SDS011;41530;52.382;5.270;2024-01-10T09:07:51;3.08;;;1.48;;
55655;SDS011;41530;52.382;5.270;2024-01-10T09:10:20;2.13;;;1.35;;
55655;SDS011;41530;52.382;5.270;2024-01-10T09:12:49;3.13;;;1.30;;
55655;SDS011;41530;52.382;5.270;2024-01-10T09:15:16;3.47;;;1.58;;
55655;SDS011;41530;52.382;5.270;2024-01-10T09:17:43;2.15;;;1.50;;
55655;SDS011;41530;52.382;5.270;2024-01-10T09:20:11;2.17;;;1.50;;
55655;SDS011;41530;52.382;5.270;2024-01-10T09:22:39;4.05;;;1.70;;
55655;SDS011;41530;52.382;5.270;2024-01-10T09:25:05;2.38;;;1.50;;
55655;SDS011;41530;52.382;5.270;2024-01-10T09:27:32;2.33;;;1.45;;
55655;SDS011;41530;52.382;5.270;2024-01-10T09:30:02;4.00;;;1.83;;
55655;SDS011;41530;52.382;5.270;2024-01-10T09:32:30;2.90;;;1.73;;
55655;SDS011;41530;52.382;5.270;2024-01-10T09:34:57;3.40;;;1.90;;
55655;SDS011;41530;52.382;5.270;2024-01-10T09:37:24;4.03;;;1.80;;
55655;SDS011;41530;52.382;5.270;2024-01-10T09:39:51;5.35;;;2.10;;
55655;SDS011;41530;52.382;5.270;2024-01-10T09:42:19;3.72;;;1.95;;
55655;SDS011;41530;52.382;5.270;2024-01-10T09:44:51;3.88;;;1.77;;
55655;SDS011;41530;52.382;5.270;2024-01-10T09:47:19;3.05;;;1.85;;
55655;SDS011;41530;52.382;5.270;2024-01-10T09:49:47;4.05;;;1.98;;
55655;SDS011;41530;52.382;5.270;2024-01-10T09:54:55;7.28;;;2.42;;
55655;SDS011;41530;52.382;5.270;2024-01-10T09:57:23;4.60;;;2.35;;
55655;SDS011;41530;52.382;5.270;2024-01-10T09:59:53;5.28;;;2.33;;
55655;SDS011;41530;52.382;5.270;2024-01-10T10:02:21;5.18;;;2.70;;
55655;SDS011;41530;52.382;5.270;2024-01-10T10:05:03;8.88;;;2.85;;
55655;SDS011;41530;52.382;5.270;2024-01-10T10:07:46;6.35;;;2.67;;
55655;SDS011;41530;52.382;5.270;2024-01-10T10:10:15;7.20;;;2.85;;
55655;SDS011;41530;52.382;5.270;2024-01-10T10:12:43;9.20;;;3.42;;
55655;SDS011;41530;52.382;5.270;2024-01-10T10:15:14;7.47;;;3.00;;
55655;SDS011;41530;52.382;5.270;2024-01-10T10:17:43;11.85;;;3.22;;
55655;SDS011;41530;52.382;5.270;2024-01-10T10:20:25;7.45;;;2.95;;
55655;SDS011;41530;52.382;5.270;2024-01-10T10:23:03;6.78;;;2.80;;
55655;SDS011;41530;52.382;5.270;2024-01-10T10:28:02;10.93;;;3.15;;
55655;SDS011;41530;52.382;5.270;2024-01-10T10:30:31;6.55;;;2.90;;
55655;SDS011;41530;52.382;5.270;2024-01-10T10:32:59;6.55;;;2.95;;
55655;SDS011;41530;52.382;5.270;2024-01-10T10:35:27;8.98;;;2.92;;
55655;SDS011;41530;52.382;5.270;2024-01-10T10:38:07;6.55;;;3.10;;
55655;SDS011;41530;52.382;5.270;2024-01-10T10:40:35;8.43;;;3.28;;
55655;SDS011;41530;52.382;5.270;2024-01-10T10:43:03;6.95;;;3.13;;
55655;SDS011;41530;52.382;5.270;2024-01-10T10:45:33;7.15;;;2.97;;
55655;SDS011;41530;52.382;5.270;2024-01-10T10:48:02;8.35;;;2.97;;
55655;SDS011;41530;52.382;5.270;2024-01-10T10:50:33;7.35;;;3.08;;
55655;SDS011;41530;52.382;5.270;2024-01-10T10:53:02;5.35;;;2.55;;
55655;SDS011;41530;52.382;5.270;2024-01-10T10:55:30;7.10;;;3.00;;
55655;SDS011;41530;52.382;5.270;2024-01-10T10:57:59;5.57;;;3.00;;
55655;SDS011;41530;52.382;5.270;2024-01-10T11:00:37;6.03;;;2.85;;
55655;SDS011;41530;52.382;5.270;2024-01-10T11:03:07;5.93;;;3.03;;
55655;SDS011;41530;52.382;5.270;2024-01-10T11:05:37;4.72;;;2.60;;
55655;SDS011;41530;52.382;5.270;2024-01-10T11:08:08;7.07;;;2.60;;
55655;SDS011;41530;52.382;5.270;2024-01-10T11:10:39;5.80;;;2.58;;
55655;SDS011;41530;52.382;5.270;2024-01-10T11:24:33;6.82;;;2.42;;
55655;SDS011;41530;52.382;5.270;2024-01-10T11:27:11;5.55;;;2.55;;
55655;SDS011;41530;52.382;5.270;2024-01-10T11:29:40;5.72;;;2.60;;
55655;SDS011;41530;52.382;5.270;2024-01-10T11:32:12;6.28;;;2.83;;
55655;SDS011;41530;52.382;5.270;2024-01-10T11:34:56;6.55;;;2.42;;
55655;SDS011;41530;52.382;5.270;2024-01-10T11:37:42;4.72;;;2.40;;
55655;SDS011;41530;52.382;5.270;2024-01-10T11:40:10;4.22;;;1.83;;
55655;SDS011;41530;52.382;5.270;2024-01-10T11:42:42;3.83;;;1.90;;
55655;SDS011;41530;52.382;5.270;2024-01-10T11:45:09;4.35;;;2.40;;
55655;SDS011;41530;52.382;5.270;2024-01-10T11:47:42;6.22;;;2.30;;
55655;SDS011;41530;52.382;5.270;2024-01-10T11:50:09;5.85;;;2.55;;
55655;SDS011;41530;52.382;5.270;2024-01-10T11:52:47;4.35;;;2.65;;
55655;SDS011;41530;52.382;5.270;2024-01-10T11:58:18;5.60;;;2.45;;
55655;SDS011;41530;52.382;5.270;2024-01-10T12:00:46;4.25;;;2.20;;
55655;SDS011;41530;52.382;5.270;2024-01-10T12:03:14;4.22;;;2.05;;
55655;SDS011;41530;52.382;5.270;2024-01-10T12:05:41;4.20;;;2.08;;
55655;SDS011;41530;52.382;5.270;2024-01-10T12:08:10;5.15;;;2.67;;
55655;SDS011;41530;52.382;5.270;2024-01-10T12:10:37;5.47;;;2.13;;
55655;SDS011;41530;52.382;5.270;2024-01-10T12:13:04;6.00;;;2.90;;
55655;SDS011;41530;52.382;5.270;2024-01-10T12:15:31;4.28;;;2.65;;
55655;SDS011;41530;52.382;5.270;2024-01-10T12:17:57;4.78;;;2.47;;
55655;SDS011;41530;52.382;5.270;2024-01-10T12:20:24;3.08;;;2.08;;
55655;SDS011;41530;52.382;5.270;2024-01-10T12:22:51;6.22;;;2.25;;
55655;SDS011;41530;52.382;5.270;2024-01-10T12:25:18;3.65;;;2.05;;
55655;SDS011;41530;52.382;5.270;2024-01-10T12:27:46;5.78;;;2.53;;
55655;SDS011;41530;52.382;5.270;2024-01-10T12:30:13;3.50;;;2.28;;
55655;SDS011;41530;52.382;5.270;2024-01-10T12:32:39;5.63;;;2.50;;
55655;SDS011;41530;52.382;5.270;2024-01-10T12:35:06;3.58;;;2.00;;
55655;SDS011;41530;52.382;5.270;2024-01-10T12:37:34;5.53;;;2.05;;
55655;SDS011;41530;52.382;5.270;2024-01-10T12:40:01;4.18;;;1.90;;
55655;SDS011;41530;52.382;5.270;2024-01-10T12:42:35;4.07;;;2.10;;
55655;SDS011;41530;52.382;5.270;2024-01-10T12:45:02;3.10;;;1.92;;
55655;SDS011;41530;52.382;5.270;2024-01-10T12:47:30;8.02;;;2.00;;
55655;SDS011;41530;52.382;5.270;2024-01-10T12:49:57;6.15;;;2.13;;
55655;SDS011;41530;52.382;5.270;2024-01-10T12:52:24;2.97;;;1.98;;
55655;SDS011;41530;52.382;5.270;2024-01-10T12:54:51;3.38;;;2.17;;
55655;SDS011;41530;52.382;5.270;2024-01-10T12:57:19;3.65;;;2.05;;
55655;SDS011;41530;52.382;5.270;2024-01-10T12:59:46;2.90;;;1.80;;
55655;SDS011;41530;52.382;5.270;2024-01-10T13:02:13;2.50;;;1.88;;
55655;SDS011;41530;52.382;5.270;2024-01-10T13:04:39;3.55;;;2.05;;
55655;SDS011;41530;52.382;5.270;2024-01-10T13:07:06;2.70;;;1.70;;
55655;SDS011;41530;52.382;5.270;2024-01-10T13:09:33;3.22;;;1.98;;
55655;SDS011;41530;52.382;5.270;2024-01-10T13:12:02;3.40;;;1.95;;
55655;SDS011;41530;52.382;5.270;2024-01-10T13:14:30;2.58;;;1.50;;
55655;SDS011;41530;52.382;5.270;2024-01-10T13:16:58;3.22;;;2.00;;
55655;SDS011;41530;52.382;5.270;2024-01-10T13:19:26;3.65;;;1.88;;
55655;SDS011;41530;52.382;5.270;2024-01-10T13:21:53;4.47;;;1.80;;
55655;SDS011;41530;52.382;5.270;2024-01-10T13:24:20;4.43;;;1.85;;
55655;SDS011;41530;52.382;5.270;2024-01-10T13:26:46;3.30;;;2.25;;
55655;SDS011;41530;52.382;5.270;2024-01-10T13:29:15;2.63;;;1.75;;
55655;SDS011;41530;52.382;5.270;2024-01-10T13:31:42;4.45;;;1.65;;
55655;SDS011;41530;52.382;5.270;2024-01-10T13:34:09;3.40;;;2.00;;
55655;SDS011;41530;52.382;5.270;2024-01-10T13:36:37;2.80;;;1.90;;
55655;SDS011;41530;52.382;5.270;2024-01-10T13:39:04;2.85;;;1.83;;
55655;SDS011;41530;52.382;5.270;2024-01-10T13:41:31;2.83;;;2.00;;
55655;SDS011;41530;52.382;5.270;2024-01-10T13:43:57;4.25;;;1.52;;
55655;SDS011;41530;52.382;5.270;2024-01-10T13:46:25;2.42;;;1.60;;
55655;SDS011;41530;52.382;5.270;2024-01-10T13:48:51;5.88;;;1.88;;
55655;SDS011;41530;52.382;5.270;2024-01-10T13:51:18;3.05;;;1.52;;
55655;SDS011;41530;52.382;5.270;2024-01-10T13:53:45;2.10;;;1.48;;
55655;SDS011;41530;52.382;5.270;2024-01-10T13:56:11;3.03;;;1.60;;
55655;SDS011;41530;52.382;5.270;2024-01-10T13:58:39;2.88;;;1.90;;
55655;SDS011;41530;52.382;5.270;2024-01-10T14:01:06;2.92;;;1.80;;
55655;SDS011;41530;52.382;5.270;2024-01-10T14:03:32;4.55;;;1.75;;
55655;SDS011;41530;52.382;5.270;2024-01-10T14:05:59;3.70;;;1.38;;
55655;SDS011;41530;52.382;5.270;2024-01-10T14:08:27;2.28;;;1.65;;
55655;SDS011;41530;52.382;5.270;2024-01-10T14:10:54;3.67;;;1.90;;
55655;SDS011;41530;52.382;5.270;2024-01-10T14:13:20;2.28;;;1.58;;
55655;SDS011;41530;52.382;5.270;2024-01-10T14:15:49;2.78;;;1.73;;
55655;SDS011;41530;52.382;5.270;2024-01-10T14:18:16;2.38;;;1.60;;
55655;SDS011;41530;52.382;5.270;2024-01-10T14:20:42;2.80;;;1.60;;
55655;SDS011;41530;52.382;5.270;2024-01-10T14:23:09;3.03;;;1.88;;
55655;SDS011;41530;52.382;5.270;2024-01-10T14:25:36;2.00;;;1.42;;
55655;SDS011;41530;52.382;5.270;2024-01-10T14:28:03;3.03;;;1.70;;
55655;SDS011;41530;52.382;5.270;2024-01-10T14:30:30;2.10;;;1.80;;
55655;SDS011;41530;52.382;5.270;2024-01-10T14:32:59;3.55;;;1.48;;
55655;SDS011;41530;52.382;5.270;2024-01-10T14:35:26;2.33;;;1.52;;
55655;SDS011;41530;52.382;5.270;2024-01-10T14:37:53;3.33;;;1.70;;
55655;SDS011;41530;52.382;5.270;2024-01-10T14:40:20;2.47;;;1.50;;
55655;SDS011;41530;52.382;5.270;2024-01-10T14:42:50;3.15;;;1.58;;
55655;SDS011;41530;52.382;5.270;2024-01-10T14:45:16;6.65;;;1.90;;
55655;SDS011;41530;52.382;5.270;2024-01-10T14:47:43;2.53;;;1.38;;
55655;SDS011;41530;52.382;5.270;2024-01-10T14:50:10;1.88;;;1.40;;
55655;SDS011;41530;52.382;5.270;2024-01-10T14:52:37;3.15;;;1.60;;
55655;SDS011;41530;52.382;5.270;2024-01-10T14:55:04;2.00;;;1.65;;
55655;SDS011;41530;52.382;5.270;2024-01-10T14:57:31;1.50;;;1.08;;
55655;SDS011;41530;52.382;5.270;2024-01-10T14:59:59;3.47;;;1.38;;
55655;SDS011;41530;52.382;5.270;2024-01-10T15:02:26;4.03;;;1.80;;
55655;SDS011;41530;52.382;5.270;2024-01-10T15:04:53;2.13;;;1.70;;
55655;SDS011;41530;52.382;5.270;2024-01-10T15:07:20;3.67;;;1.75;;
55655;SDS011;41530;52.382;5.270;2024-01-10T15:09:47;2.03;;;1.42;;
55655;SDS011;41530;52.382;5.270;2024-01-10T15:12:13;2.20;;;1.60;;